This is the latest recevied weather packets stored in our database for station/object WI5ARD. If no packets are shown the sender has not sent any weather packets the latest 10 day(s).
| Time | Temp. | Humidity | Pressure | Rain* | Wind** | Luminosity | Snow |
|---|---|---|---|---|---|---|---|
| 1777592418 | 21.67° C | 94% | 1013.3 hPa | 5.59 mm | - | 14 W/m² | - |
| 1777590940 | 21.67° C | 94% | 1012.8 hPa | 6.1 mm | - | 0 W/m² | - |
| 1777589719 | 22.22° C | 93% | 1013.5 hPa | 4.83 mm | - | 0 W/m² | - |
| 1777589419 | 22.22° C | 93% | 1013.3 hPa | 4.32 mm | - | 9 W/m² | - |
| 1777587620 | 22.22° C | 93% | 1012.4 hPa | 1.27 mm | - | 12 W/m² | - |
| 1777587363 | 22.78° C | 93% | 1012.4 hPa | 1.02 mm | - | 12 W/m² | - |
| 1777587018 | 22.78° C | 93% | 1012.3 hPa | 1.02 mm | - | 30 W/m² | - |
| 1777584921 | 22.78° C | 91% | 1012.5 hPa | 0 mm | - | 35 W/m² | - |
| 1777584019 | 22.78° C | 91% | 1012.2 hPa | 0 mm | - | 51 W/m² | - |
| 1777583740 | 22.78° C | 91% | 1012.2 hPa | 0 mm | - | 56 W/m² | - |
| 1777580725 | 22.78° C | 91% | 1012.7 hPa | 0 mm | - | 63 W/m² | - |
| 1777579820 | 22.78° C | 90% | 1012.6 hPa | 0 mm | - | 109 W/m² | - |
| 1777578342 | 23.33° C | 89% | 1012.9 hPa | 0 mm | - | 53 W/m² | - |
| 1777577435 | 23.33° C | 89% | 1013.2 hPa | 0 mm | - | 151 W/m² | - |
| 1777573524 | 23.33° C | 90% | 1013.6 hPa | 0 mm | - | 482 W/m² | - |
| 1777572623 | 23.33° C | 93% | 1013.5 hPa | 0 mm | - | 473 W/m² | - |
| 1777572041 | 22.78° C | 95% | 1013.4 hPa | 0 mm | - | 591 W/m² | - |
| 1777570522 | 21.67° C | 97% | 1013.8 hPa | 0 mm | - | 821 W/m² | - |
| 1777569923 | 21.11° C | 97% | 1014.3 hPa | 0.25 mm | - | 478 W/m² | - |
| 1777567540 | 21.11° C | 97% | 1014.3 hPa | 1.52 mm | - | 149 W/m² | - |
| 1777566922 | 20.56° C | 97% | 1014.2 hPa | 1.52 mm | - | 281 W/m² | - |
| 1777565740 | 20.56° C | 97% | 1014.3 hPa | 1.27 mm | - | 107 W/m² | - |
| 1777565422 | 20.56° C | 97% | 1014.5 hPa | 1.02 mm | - | 67 W/m² | - |
| 1777563940 | 20.56° C | 97% | 1015.1 hPa | 0 mm | - | 90 W/m² | - |
| 1777562138 | 20.56° C | 97% | 1014.4 hPa | 0.25 mm | - | 271 W/m² | - |
* Rain latest hour (hover to see other rain measurements)
** Current wind speed in m/s (hover to see current wind gust speed)